Time;durP1;ratioP1;P1;durP2;ratioP2;P2;SDS_P1;SDS_P2;PMS_P1;PMS_P2;Temp;Humidity;BMP_temperature;BMP_pressure;BME280_temperature;BME280_humidity;BME280_pressure;Samples;Min_cycle;Max_cycle;Signal;HPM_P1;HPM_P2
2023/09/16 00:00:33;;;;;;;15.00;12.20;;;;;;;;;;5044194;28;20045;-81
2023/09/16 00:03:18;;;;;;;14.60;12.93;;;;;;;;;;5045638;28;20041;-82
2023/09/16 00:06:04;;;;;;;15.52;11.75;;;;;;;;;;5025617;28;20495;-82
2023/09/16 00:08:49;;;;;;;15.00;12.98;;;;;;;;;;5025290;28;20038;-81
2023/09/16 00:11:36;;;;;;;14.25;12.75;;;;;;;;;;5033630;28;20054;-80
2023/09/16 00:14:24;;;;;;;15.65;13.18;;;;;;;;;;5033289;28;20034;-79
2023/09/16 00:17:10;;;;;;;16.63;13.23;;;;;;;;;;5033265;28;20042;-80
2023/09/16 00:19:55;;;;;;;16.42;12.93;;;;;;;;;;5018220;28;20461;-81
2023/09/16 00:22:45;;;;;;;14.07;12.60;;;;;;;;;;5033341;28;20262;-80
2023/09/16 00:25:31;;;;;;;17.52;13.30;;;;;;;;;;5033208;28;20049;-79
2023/09/16 00:28:16;;;;;;;18.10;13.68;;;;;;;;;;5024674;28;20082;-82
2023/09/16 00:31:03;;;;;;;16.45;13.45;;;;;;;;;;5025428;28;20050;-81
2023/09/16 00:33:49;;;;;;;18.45;13.90;;;;;;;;;;5011820;28;20041;-81
2023/09/16 00:36:34;;;;;;;16.75;13.45;;;;;;;;;;5034382;28;20046;-80
2023/09/16 00:39:20;;;;;;;19.45;13.35;;;;;;;;;;5026997;28;20473;-82
2023/09/16 00:42:05;;;;;;;17.23;12.95;;;;;;;;;;5034715;28;20049;-80
2023/09/16 00:44:51;;;;;;;16.00;13.38;;;;;;;;;;5034862;28;20042;-83
2023/09/16 00:47:37;;;;;;;17.27;13.55;;;;;;;;;;5019859;28;20069;-80
2023/09/16 00:50:22;;;;;;;14.80;12.75;;;;;;;;;;5026803;28;20392;-79
2023/09/16 00:53:09;;;;;;;15.73;12.75;;;;;;;;;;5019883;28;20477;-80
2023/09/16 00:55:54;;;;;;;14.50;12.50;;;;;;;;;;5025919;28;20049;-80
2023/09/16 00:58:41;;;;;;;18.52;13.07;;;;;;;;;;5034447;28;20045;-80
2023/09/16 01:01:25;;;;;;;15.93;12.38;;;;;;;;;;5025841;28;20049;-80
2023/09/16 01:04:11;;;;;;;19.95;13.23;;;;;;;;;;5034799;28;20400;-81
2023/09/16 01:06:57;;;;;;;19.33;14.02;;;;;;;;;;5040660;28;20057;-81
2023/09/16 01:09:43;;;;;;;17.80;12.93;;;;;;;;;;5031642;28;20049;-80
2023/09/16 01:12:28;;;;;;;15.73;13.10;;;;;;;;;;5040029;28;20053;-79
2023/09/16 01:15:16;;;;;;;19.15;13.30;;;;;;;;;;5040081;28;20045;-78
2023/09/16 01:18:23;;;;;;;17.33;13.63;;;;;;;;;;5033481;28;20045;-80
2023/09/16 01:21:10;;;;;;;15.95;13.15;;;;;;;;;;5031697;28;20046;-80
2023/09/16 01:24:17;;;;;;;17.85;13.18;;;;;;;;;;5040632;28;20053;-79
2023/09/16 01:27:04;;;;;;;18.40;13.68;;;;;;;;;;5034364;28;20057;-79
2023/09/16 01:29:50;;;;;;;15.43;12.95;;;;;;;;;;5035916;28;20049;-81
2023/09/16 01:32:50;;;;;;;14.77;12.95;;;;;;;;;;5027687;28;20396;-79
2023/09/16 01:35:38;;;;;;;16.05;13.13;;;;;;;;;;5034663;28;20049;-78
2023/09/16 01:38:24;;;;;;;19.45;13.50;;;;;;;;;;5033962;28;20045;-80
2023/09/16 01:41:10;;;;;;;18.60;14.45;;;;;;;;;;5034596;28;20041;-79
2023/09/16 01:43:58;;;;;;;18.45;13.73;;;;;;;;;;5012976;28;20057;-79
2023/09/16 01:46:43;;;;;;;15.73;14.05;;;;;;;;;;5035064;28;20053;-80
2023/09/16 01:49:28;;;;;;;19.63;15.18;;;;;;;;;;5019097;28;20049;-78
2023/09/16 01:52:16;;;;;;;19.77;14.27;;;;;;;;;;5025079;28;20053;-80
2023/09/16 01:55:02;;;;;;;17.95;14.68;;;;;;;;;;5033809;28;20045;-79
2023/09/16 01:57:47;;;;;;;18.13;14.63;;;;;;;;;;5031132;28;20045;-79
2023/09/16 02:00:32;;;;;;;19.52;14.20;;;;;;;;;;5025446;28;20420;-80
2023/09/16 02:03:17;;;;;;;25.35;13.98;;;;;;;;;;5033513;28;20046;-79
2023/09/16 02:06:06;;;;;;;18.88;14.15;;;;;;;;;;5033480;28;20045;-78
2023/09/16 02:08:52;;;;;;;17.77;14.07;;;;;;;;;;5011928;28;20408;-79
2023/09/16 02:11:37;;;;;;;19.88;14.43;;;;;;;;;;5033528;28;20054;-79
2023/09/16 02:14:22;;;;;;;18.85;14.77;;;;;;;;;;5036134;28;20049;-80
2023/09/16 02:17:07;;;;;;;16.80;14.13;;;;;;;;;;5037478;28;20045;-80
2023/09/16 02:19:53;;;;;;;18.60;14.02;;;;;;;;;;5029054;28;20053;-79
2023/09/16 02:22:40;;;;;;;18.88;13.68;;;;;;;;;;5026266;28;20050;-80
2023/09/16 02:25:25;;;;;;;16.88;14.43;;;;;;;;;;5037285;28;20054;-79
2023/09/16 02:28:10;;;;;;;19.85;14.05;;;;;;;;;;5029484;28;20053;-80
2023/09/16 02:30:56;;;;;;;16.80;13.73;;;;;;;;;;5037628;28;20042;-82
2023/09/16 02:33:42;;;;;;;16.15;13.23;;;;;;;;;;5028728;28;20045;-81
2023/09/16 02:36:27;;;;;;;16.35;12.90;;;;;;;;;;5037405;28;20041;-79
2023/09/16 02:39:13;;;;;;;17.60;12.93;;;;;;;;;;5037147;28;20042;-80
2023/09/16 02:41:59;;;;;;;14.65;12.73;;;;;;;;;;5029046;28;20057;-80
2023/09/16 02:44:44;;;;;;;16.10;12.30;;;;;;;;;;5028821;28;20057;-79
2023/09/16 02:47:30;;;;;;;16.55;13.40;;;;;;;;;;5028512;28;20049;-80
2023/09/16 02:50:16;;;;;;;20.98;13.90;;;;;;;;;;5028801;28;20469;-79
2023/09/16 02:53:02;;;;;;;18.02;13.65;;;;;;;;;;5037076;28;20041;-78
2023/09/16 02:55:47;;;;;;;17.85;13.77;;;;;;;;;;5028381;28;20049;-79
2023/09/16 02:58:34;;;;;;;17.23;12.57;;;;;;;;;;5028732;28;20116;-80
2023/09/16 03:01:19;;;;;;;17.27;13.13;;;;;;;;;;5028128;28;20508;-80
2023/09/16 03:04:05;;;;;;;20.70;13.30;;;;;;;;;;5028326;28;20046;-81
2023/09/16 03:06:51;;;;;;;19.05;14.07;;;;;;;;;;5028520;28;20396;-81
2023/09/16 03:09:36;;;;;;;21.83;14.10;;;;;;;;;;5036482;28;20480;-80
2023/09/16 03:12:25;;;;;;;18.27;14.60;;;;;;;;;;5028399;28;20049;-79
2023/09/16 03:15:13;;;;;;;22.30;15.35;;;;;;;;;;5028119;28;20045;-82
2023/09/16 03:17:59;;;;;;;21.25;14.65;;;;;;;;;;5021672;28;20046;-80
2023/09/16 03:20:44;;;;;;;19.83;14.07;;;;;;;;;;5029025;28;20488;-81
2023/09/16 03:23:29;;;;;;;16.50;13.82;;;;;;;;;;5022049;28;20041;-80
2023/09/16 03:26:15;;;;;;;16.02;14.18;;;;;;;;;;5035330;28;20049;-79
2023/09/16 03:29:03;;;;;;;19.38;14.85;;;;;;;;;;5027673;28;20053;-81
2023/09/16 03:31:49;;;;;;;15.35;13.63;;;;;;;;;;5028269;28;20392;-80
2023/09/16 03:34:38;;;;;;;16.90;13.57;;;;;;;;;;5028273;28;20045;-79
2023/09/16 03:37:23;;;;;;;19.15;12.63;;;;;;;;;;5020853;28;20038;-80
2023/09/16 03:40:09;;;;;;;18.67;14.20;;;;;;;;;;5027759;28;20053;-80
2023/09/16 03:42:56;;;;;;;21.00;13.75;;;;;;;;;;5027801;28;20049;-81
2023/09/16 03:45:41;;;;;;;17.77;13.27;;;;;;;;;;5036385;28;20045;-80
2023/09/16 03:48:26;;;;;;;18.50;13.38;;;;;;;;;;5028066;28;20055;-79
2023/09/16 03:51:12;;;;;;;18.48;13.32;;;;;;;;;;5020824;28;20042;-80
2023/09/16 03:53:58;;;;;;;15.60;12.30;;;;;;;;;;5036119;28;20053;-81
2023/09/16 03:56:43;;;;;;;18.02;11.93;;;;;;;;;;5027286;28;20049;-79
2023/09/16 03:59:31;;;;;;;18.85;12.18;;;;;;;;;;5027537;28;20480;-80
2023/09/16 04:02:17;;;;;;;16.30;12.27;;;;;;;;;;5027493;28;20045;-80
2023/09/16 04:05:02;;;;;;;13.23;11.82;;;;;;;;;;5027110;28;20045;-80
2023/09/16 04:07:48;;;;;;;14.38;12.73;;;;;;;;;;5027725;28;20049;-81
2023/09/16 04:10:33;;;;;;;16.60;12.35;;;;;;;;;;5035270;28;20050;-80
2023/09/16 04:13:19;;;;;;;16.60;12.70;;;;;;;;;;5027264;28;20053;-80
2023/09/16 04:16:05;;;;;;;18.05;14.07;;;;;;;;;;5027324;28;20045;-80
2023/09/16 04:18:53;;;;;;;19.92;14.10;;;;;;;;;;5034820;28;20045;-81
2023/09/16 04:21:38;;;;;;;20.50;13.35;;;;;;;;;;5026653;28;20041;-80
2023/09/16 04:24:24;;;;;;;20.08;14.02;;;;;;;;;;5024192;28;20053;-81
2023/09/16 04:27:09;;;;;;;18.67;13.77;;;;;;;;;;5013215;28;20057;-81
2023/09/16 04:29:56;;;;;;;19.08;13.32;;;;;;;;;;5026635;28;20049;-81
2023/09/16 04:32:43;;;;;;;18.42;13.80;;;;;;;;;;5026670;28;20042;-81
2023/09/16 04:35:29;;;;;;;18.45;13.20;;;;;;;;;;5035078;28;20045;-80
2023/09/16 04:38:15;;;;;;;20.30;14.10;;;;;;;;;;5012634;28;20041;-81
2023/09/16 04:41:01;;;;;;;17.17;14.38;;;;;;;;;;5026723;28;20405;-81
2023/09/16 04:43:49;;;;;;;20.45;15.48;;;;;;;;;;5026730;28;20400;-81
2023/09/16 04:46:34;;;;;;;19.65;14.43;;;;;;;;;;5012581;28;20045;-80
2023/09/16 04:49:24;;;;;;;18.40;14.32;;;;;;;;;;5037388;28;20050;-80
2023/09/16 04:52:10;;;;;;;20.73;13.88;;;;;;;;;;5026543;28;20480;-81
2023/09/16 04:54:55;;;;;;;18.48;14.70;;;;;;;;;;5033482;28;20093;-81
2023/09/16 04:57:41;;;;;;;17.67;14.20;;;;;;;;;;5026101;28;20404;-80
2023/09/16 05:00:33;;;;;;;17.17;14.00;;;;;;;;;;5025690;28;20046;-79
2023/09/16 05:03:19;;;;;;;19.80;14.13;;;;;;;;;;5026571;28;20045;-80
2023/09/16 05:06:05;;;;;;;22.95;16.30;;;;;;;;;;5020939;28;20401;-82
2023/09/16 05:08:54;;;;;;;29.35;17.70;;;;;;;;;;5040823;28;20045;-80
2023/09/16 05:11:40;;;;;;;32.58;20.65;;;;;;;;;;5049034;28;20044;-81
2023/09/16 05:14:25;;;;;;;30.17;18.90;;;;;;;;;;5047095;28;20045;-82
2023/09/16 05:17:10;;;;;;;28.90;18.48;;;;;;;;;;5042223;28;20038;-80
2023/09/16 05:19:55;;;;;;;41.22;23.05;;;;;;;;;;5028892;28;20041;-81
2023/09/16 05:22:48;;;;;;;39.92;22.75;;;;;;;;;;5043731;28;20050;-80
2023/09/16 05:25:34;;;;;;;36.00;23.38;;;;;;;;;;5034044;28;20041;-81
2023/09/16 05:28:20;;;;;;;29.38;21.52;;;;;;;;;;5035290;28;20044;-81
2023/09/16 05:31:06;;;;;;;36.33;23.35;;;;;;;;;;5041443;28;20049;-82
2023/09/16 05:33:54;;;;;;;40.50;27.67;;;;;;;;;;5034306;28;20408;-80
2023/09/16 05:36:40;;;;;;;32.28;21.08;;;;;;;;;;5048626;28;20664;-80
2023/09/16 05:39:26;;;;;;;28.65;19.77;;;;;;;;;;5034962;28;20148;-80
2023/09/16 05:42:13;;;;;;;23.75;17.40;;;;;;;;;;5029488;28;20045;-80
2023/09/16 05:45:03;;;;;;;25.40;16.52;;;;;;;;;;5025912;28;20045;-81
2023/09/16 05:47:51;;;;;;;25.02;17.40;;;;;;;;;;5032665;28;20416;-80
2023/09/16 05:50:37;;;;;;;23.33;16.45;;;;;;;;;;5028173;28;20502;-80
2023/09/16 05:53:23;;;;;;;20.60;15.57;;;;;;;;;;5052295;28;20404;-82
2023/09/16 05:56:09;;;;;;;18.88;14.77;;;;;;;;;;5045110;28;20041;-82
2023/09/16 05:59:00;;;;;;;20.15;15.43;;;;;;;;;;5052164;28;20049;-80
2023/09/16 06:01:45;;;;;;;17.08;14.13;;;;;;;;;;5045103;28;20053;-81
2023/09/16 06:04:31;;;;;;;15.50;13.02;;;;;;;;;;5045279;28;20048;-82
2023/09/16 06:07:17;;;;;;;18.92;14.98;;;;;;;;;;5045330;28;20049;-81
2023/09/16 06:10:02;;;;;;;16.88;14.32;;;;;;;;;;5030975;28;20391;-81
2023/09/16 06:12:48;;;;;;;16.48;13.18;;;;;;;;;;5052956;28;20045;-81
2023/09/16 06:15:33;;;;;;;15.20;12.13;;;;;;;;;;5059106;28;20040;-82
2023/09/16 06:18:18;;;;;;;20.75;12.85;;;;;;;;;;5053005;28;20045;-81
2023/09/16 06:21:03;;;;;;;19.08;13.52;;;;;;;;;;5045118;28;20490;-80
2023/09/16 06:23:50;;;;;;;21.23;14.93;;;;;;;;;;5052140;28;20053;-81
2023/09/16 06:26:35;;;;;;;20.55;16.63;;;;;;;;;;5053775;28;20049;-81
2023/09/16 06:29:20;;;;;;;21.67;15.05;;;;;;;;;;5045057;28;20480;-80
2023/09/16 06:32:07;;;;;;;25.58;14.45;;;;;;;;;;5032611;28;20416;-80
2023/09/16 06:34:52;;;;;;;20.45;15.02;;;;;;;;;;5050253;28;20045;-81
2023/09/16 06:37:38;;;;;;;22.02;14.70;;;;;;;;;;5044421;28;20045;-82
2023/09/16 06:40:24;;;;;;;16.55;14.00;;;;;;;;;;5045041;28;20049;-79
2023/09/16 06:43:10;;;;;;;20.33;12.82;;;;;;;;;;5053126;28;20049;-82
2023/09/16 06:46:03;;;;;;;16.88;12.35;;;;;;;;;;5052851;28;20472;-82
2023/09/16 06:48:48;;;;;;;14.55;11.48;;;;;;;;;;5045088;28;20060;-81
2023/09/16 06:51:34;;;;;;;17.25;12.20;;;;;;;;;;5046213;28;20045;-80
2023/09/16 06:54:19;;;;;;;13.40;12.00;;;;;;;;;;5043393;28;20049;-81
2023/09/16 06:57:05;;;;;;;14.50;11.30;;;;;;;;;;5039525;28;20468;-80
2023/09/16 06:59:50;;;;;;;14.75;10.98;;;;;;;;;;5047079;28;20041;-81
2023/09/16 07:02:38;;;;;;;17.55;11.30;;;;;;;;;;5041786;28;20049;-81
2023/09/16 07:05:24;;;;;;;18.27;12.77;;;;;;;;;;5048265;28;20476;-80
2023/09/16 07:08:09;;;;;;;15.60;12.35;;;;;;;;;;5033335;28;20045;-81
2023/09/16 07:10:54;;;;;;;13.65;10.57;;;;;;;;;;5042288;28;20049;-81
2023/09/16 07:13:39;;;;;;;14.02;10.65;;;;;;;;;;5036239;28;20037;-79
2023/09/16 07:16:39;;;;;;;15.00;11.35;;;;;;;;;;5037019;28;20054;-81
2023/09/16 07:19:25;;;;;;;14.63;10.35;;;;;;;;;;5035979;28;20493;-80
2023/09/16 07:22:10;;;;;;;13.93;10.60;;;;;;;;;;5036275;28;20049;-82
2023/09/16 07:24:56;;;;;;;13.95;10.50;;;;;;;;;;5041724;28;20057;-83
2023/09/16 07:27:41;;;;;;;15.50;11.95;;;;;;;;;;5055617;28;20049;-83
2023/09/16 07:30:30;;;;;;;17.02;11.48;;;;;;;;;;5047606;28;20052;-82
2023/09/16 07:33:16;;;;;;;15.13;12.35;;;;;;;;;;5055906;28;20225;-80
2023/09/16 07:36:01;;;;;;;14.63;12.18;;;;;;;;;;5047413;28;20045;-79
2023/09/16 07:38:47;;;;;;;15.95;12.27;;;;;;;;;;5047291;28;20049;-81
2023/09/16 07:41:32;;;;;;;14.32;11.50;;;;;;;;;;5040542;28;20484;-81
2023/09/16 07:44:17;;;;;;;13.95;11.85;;;;;;;;;;5055361;28;20049;-81
2023/09/16 07:47:03;;;;;;;14.98;12.07;;;;;;;;;;5040472;28;20033;-80
2023/09/16 07:49:48;;;;;;;19.27;13.20;;;;;;;;;;5056305;28;20053;-80
2023/09/16 07:52:34;;;;;;;16.35;12.98;;;;;;;;;;5040135;28;20045;-80
2023/09/16 07:55:19;;;;;;;16.75;12.48;;;;;;;;;;5054389;28;20476;-81
2023/09/16 07:58:05;;;;;;;15.73;12.57;;;;;;;;;;5053453;28;20053;-81
2023/09/16 08:00:50;;;;;;;20.38;11.88;;;;;;;;;;5046103;28;20060;-81
2023/09/16 08:03:37;;;;;;;13.35;11.07;;;;;;;;;;5055021;28;20049;-82
2023/09/16 08:06:23;;;;;;;16.88;11.60;;;;;;;;;;5054933;28;20400;-79
2023/09/16 08:09:08;;;;;;;16.95;11.23;;;;;;;;;;5054770;28;20045;-81
2023/09/16 08:11:54;;;;;;;17.10;11.60;;;;;;;;;;5054384;28;20041;-83
2023/09/16 08:14:39;;;;;;;16.58;10.95;;;;;;;;;;5045310;28;20053;-82
2023/09/16 08:17:24;;;;;;;14.80;11.18;;;;;;;;;;5054217;28;20053;-81
2023/09/16 08:20:10;;;;;;;15.48;11.98;;;;;;;;;;5039080;28;20037;-81
2023/09/16 08:22:56;;;;;;;15.32;11.48;;;;;;;;;;5056743;28;20056;-81
2023/09/16 08:25:42;;;;;;;17.17;11.38;;;;;;;;;;5052243;28;20049;-81
2023/09/16 08:28:27;;;;;;;13.93;11.20;;;;;;;;;;5045947;28;20068;-82
2023/09/16 08:31:13;;;;;;;15.15;10.32;;;;;;;;;;5054261;28;20048;-82
2023/09/16 08:34:02;;;;;;;15.38;12.02;;;;;;;;;;5038976;28;20049;-80
2023/09/16 08:36:47;;;;;;;16.00;9.77;;;;;;;;;;5054025;28;20045;-82
2023/09/16 08:39:33;;;;;;;9.73;7.47;;;;;;;;;;5045956;28;20045;-80
2023/09/16 08:42:38;;;;;;;11.80;8.05;;;;;;;;;;5039813;28;20044;-81
2023/09/16 08:45:26;;;;;;;13.40;9.65;;;;;;;;;;5054272;28;20045;-82
2023/09/16 08:48:20;;;;;;;9.60;8.50;;;;;;;;;;5054337;28;20045;-79
2023/09/16 08:51:07;;;;;;;10.27;7.83;;;;;;;;;;5034458;28;20395;-81
2023/09/16 08:53:55;;;;;;;9.50;7.68;;;;;;;;;;5020635;28;20057;-81
2023/09/16 08:56:42;;;;;;;11.10;8.93;;;;;;;;;;5045974;28;20053;-82
2023/09/16 08:59:28;;;;;;;11.35;9.50;;;;;;;;;;5045385;28;20045;-82
2023/09/16 09:02:15;;;;;;;9.73;8.73;;;;;;;;;;5032349;28;20041;-81
2023/09/16 09:05:00;;;;;;;11.57;8.50;;;;;;;;;;5040126;28;20053;-80
2023/09/16 09:07:45;;;;;;;9.85;8.85;;;;;;;;;;5045198;28;20049;-82
2023/09/16 09:10:31;;;;;;;12.40;8.23;;;;;;;;;;5053043;28;20045;-84
2023/09/16 09:13:18;;;;;;;10.60;9.18;;;;;;;;;;5053176;28;20052;-80
2023/09/16 09:16:04;;;;;;;11.00;9.18;;;;;;;;;;5054774;28;20041;-82
2023/09/16 09:18:52;;;;;;;11.55;8.98;;;;;;;;;;5054056;28;20040;-80
2023/09/16 09:21:37;;;;;;;11.75;8.95;;;;;;;;;;5054159;28;20049;-81
2023/09/16 09:24:24;;;;;;;10.88;9.57;;;;;;;;;;5054240;28;20037;-81
2023/09/16 09:27:08;;;;;;;13.18;10.70;;;;;;;;;;5054016;28;20045;-81
2023/09/16 09:29:54;;;;;;;10.85;9.63;;;;;;;;;;5054531;28;20053;-79
2023/09/16 09:32:43;;;;;;;9.82;8.20;;;;;;;;;;5038567;28;20049;-79
2023/09/16 09:35:31;;;;;;;10.93;8.90;;;;;;;;;;5045620;28;20049;-80
2023/09/16 09:38:17;;;;;;;11.50;9.38;;;;;;;;;;5053523;28;20049;-81
2023/09/16 09:41:02;;;;;;;13.20;8.88;;;;;;;;;;5045023;28;20045;-82
2023/09/16 09:43:51;;;;;;;12.85;8.63;;;;;;;;;;5053634;28;20480;-83
2023/09/16 09:46:37;;;;;;;10.98;9.32;;;;;;;;;;5053696;28;20057;-80
2023/09/16 09:49:22;;;;;;;13.98;9.63;;;;;;;;;;5053907;28;20052;-82
2023/09/16 09:52:09;;;;;;;13.32;9.60;;;;;;;;;;5054448;28;20037;-81
2023/09/16 09:54:56;;;;;;;11.30;8.27;;;;;;;;;;5031317;28;20061;-80
2023/09/16 09:57:42;;;;;;;10.68;8.52;;;;;;;;;;5059206;28;20160;-82
2023/09/16 10:00:28;;;;;;;9.93;8.85;;;;;;;;;;5044806;28;20053;-82
2023/09/16 10:03:14;;;;;;;10.73;9.60;;;;;;;;;;5054199;28;20045;-83
2023/09/16 10:06:13;;;;;;;9.60;8.15;;;;;;;;;;5045833;28;20045;-79
2023/09/16 10:08:58;;;;;;;10.55;8.85;;;;;;;;;;5053187;28;20053;-82
2023/09/16 10:11:45;;;;;;;11.98;9.10;;;;;;;;;;5053768;28;20045;-82
2023/09/16 10:14:32;;;;;;;10.07;9.00;;;;;;;;;;5053361;28;20396;-81
2023/09/16 10:17:19;;;;;;;9.10;8.20;;;;;;;;;;5038872;28;20053;-82
2023/09/16 10:20:06;;;;;;;9.90;8.93;;;;;;;;;;5053360;28;20041;-83
2023/09/16 10:22:52;;;;;;;11.38;8.23;;;;;;;;;;5052765;28;20057;-80
2023/09/16 10:25:38;;;;;;;9.63;8.23;;;;;;;;;;5053399;28;20045;-80
2023/09/16 10:28:23;;;;;;;9.90;8.60;;;;;;;;;;5044882;28;20041;-81
2023/09/16 10:31:11;;;;;;;9.38;8.48;;;;;;;;;;5053812;28;20037;-81
2023/09/16 10:33:57;;;;;;;9.15;8.25;;;;;;;;;;5053498;28;20205;-83
2023/09/16 10:36:42;;;;;;;11.82;8.23;;;;;;;;;;5055320;28;20049;-81
2023/09/16 10:39:29;;;;;;;9.35;8.25;;;;;;;;;;5048810;28;20048;-82
2023/09/16 10:42:19;;;;;;;9.32;8.43;;;;;;;;;;5057146;28;20053;-81
2023/09/16 10:45:11;;;;;;;11.00;8.38;;;;;;;;;;5042487;28;20388;-80
2023/09/16 10:48:01;;;;;;;9.85;8.70;;;;;;;;;;5056766;28;20041;-80
2023/09/16 10:50:47;;;;;;;9.75;8.63;;;;;;;;;;5041716;28;20049;-80
2023/09/16 10:53:36;;;;;;;9.68;8.73;;;;;;;;;;5057148;28;20049;-80
2023/09/16 10:56:33;;;;;;;9.98;8.30;;;;;;;;;;5056430;28;20037;-79
2023/09/16 10:59:25;;;;;;;10.15;8.27;;;;;;;;;;5056939;28;20037;-79
2023/09/16 11:02:36;;;;;;;10.82;8.45;;;;;;;;;;5041648;28;20040;-80
2023/09/16 11:05:21;;;;;;;8.95;8.00;;;;;;;;;;5048118;28;20040;-78
2023/09/16 11:08:07;;;;;;;11.95;8.88;;;;;;;;;;5034793;28;20045;-79
2023/09/16 11:10:54;;;;;;;10.38;8.60;;;;;;;;;;5056515;28;20492;-79
2023/09/16 11:13:39;;;;;;;10.43;8.35;;;;;;;;;;5041490;28;20045;-79
2023/09/16 11:16:24;;;;;;;11.55;8.65;;;;;;;;;;5056360;28;20045;-81
2023/09/16 11:19:19;;;;;;;10.45;8.38;;;;;;;;;;5055828;28;20427;-81
2023/09/16 11:22:04;;;;;;;;;;;;;;;;;;5057118;28;20048;-82
2023/09/16 11:24:53;;;;;;;11.25;8.35;;;;;;;;;;5056185;28;19916;-80
2023/09/16 11:27:39;;;;;;;12.23;7.78;;;;;;;;;;5055980;28;20476;-79
2023/09/16 11:30:24;;;;;;;11.95;7.95;;;;;;;;;;5059062;28;20407;-78
2023/09/16 11:33:26;;;;;;;10.15;8.27;;;;;;;;;;5040866;28;20044;-80
2023/09/16 11:36:13;;;;;;;13.85;8.23;;;;;;;;;;5056266;28;20052;-78
2023/09/16 11:39:11;;;;;;;14.60;8.10;;;;;;;;;;5055584;28;20037;-83
2023/09/16 11:41:56;;;;;;;12.75;9.32;;;;;;;;;;5055756;28;20044;-82
2023/09/16 11:44:42;;;;;;;8.90;7.90;;;;;;;;;;5055510;28;20052;-81
2023/09/16 11:47:31;;;;;;;11.00;9.40;;;;;;;;;;5054466;28;20053;-79
2023/09/16 11:50:23;;;;;;;9.20;7.93;;;;;;;;;;5055809;28;20048;-82
2023/09/16 11:53:09;;;;;;;9.07;7.55;;;;;;;;;;5055356;28;20376;-78
2023/09/16 11:55:55;;;;;;;10.05;8.27;;;;;;;;;;5055801;28;20053;-79
2023/09/16 11:58:42;;;;;;;9.77;8.52;;;;;;;;;;5055262;28;20057;-80
2023/09/16 12:01:40;;;;;;;10.93;8.10;;;;;;;;;;5055237;28;20045;-81
2023/09/16 12:04:27;;;;;;;10.73;8.13;;;;;;;;;;5045109;28;20044;-83
2023/09/16 12:07:13;;;;;;;10.38;8.18;;;;;;;;;;5054745;28;20049;-80
2023/09/16 12:10:06;;;;;;;8.77;7.78;;;;;;;;;;5055724;28;20057;-80
2023/09/16 12:12:52;;;;;;;9.65;8.65;;;;;;;;;;5053771;28;20049;-81
2023/09/16 12:15:37;;;;;;;9.65;8.05;;;;;;;;;;5053666;28;20049;-79
2023/09/16 12:18:23;;;;;;;9.57;7.68;;;;;;;;;;5054333;28;20483;-79
2023/09/16 12:21:09;;;;;;;9.13;7.65;;;;;;;;;;5055392;28;20037;-81
2023/09/16 12:23:54;;;;;;;9.70;6.95;;;;;;;;;;5055441;28;20033;-80
2023/09/16 12:26:40;;;;;;;10.73;7.88;;;;;;;;;;5040154;28;20052;-80
2023/09/16 12:29:26;;;;;;;11.05;8.00;;;;;;;;;;5054839;28;20483;-80
2023/09/16 12:32:23;;;;;;;10.10;7.90;;;;;;;;;;5055185;28;20057;-81
2023/09/16 12:35:09;;;;;;;8.25;7.40;;;;;;;;;;5039636;28;20049;-82
2023/09/16 12:37:59;;;;;;;9.45;7.10;;;;;;;;;;5045367;28;20053;-79
2023/09/16 12:40:46;;;;;;;8.23;6.80;;;;;;;;;;5043440;28;20049;-81
2023/09/16 12:43:32;;;;;;;8.27;7.38;;;;;;;;;;5050410;28;20044;-81
2023/09/16 12:46:21;;;;;;;8.63;7.72;;;;;;;;;;5053665;28;20061;-80
2023/09/16 12:49:06;;;;;;;8.45;7.40;;;;;;;;;;5035753;28;20049;-82
2023/09/16 12:51:54;;;;;;;12.27;9.07;;;;;;;;;;5045313;28;20049;-80
2023/09/16 12:54:42;;;;;;;11.80;8.90;;;;;;;;;;5035438;28;20049;-81
2023/09/16 12:57:27;;;;;;;8.90;7.88;;;;;;;;;;5034424;28;20041;-80
2023/09/16 13:00:19;;;;;;;8.55;7.75;;;;;;;;;;5034533;28;20053;-81
2023/09/16 13:03:06;;;;;;;9.00;7.07;;;;;;;;;;5051437;28;20391;-80
2023/09/16 13:05:55;;;;;;;8.43;7.47;;;;;;;;;;5053602;28;20033;-80
2023/09/16 13:08:41;;;;;;;10.93;7.43;;;;;;;;;;5034476;28;20396;-80
2023/09/16 13:11:27;;;;;;;11.27;7.78;;;;;;;;;;5034187;28;20049;-80
2023/09/16 13:14:12;;;;;;;13.82;7.55;;;;;;;;;;5034441;28;20041;-79
2023/09/16 13:16:57;;;;;;;9.50;7.25;;;;;;;;;;5034280;28;20396;-80
2023/09/16 13:19:43;;;;;;;9.20;7.68;;;;;;;;;;5041757;28;20045;-81
2023/09/16 13:22:28;;;;;;;8.10;7.30;;;;;;;;;;5034691;28;20049;-79
2023/09/16 13:25:32;;;;;;;9.00;7.18;;;;;;;;;;5038390;28;20045;-81
2023/09/16 13:28:19;;;;;;;9.07;7.57;;;;;;;;;;5036114;28;20041;-80
2023/09/16 13:31:04;;;;;;;12.05;7.75;;;;;;;;;;5033987;28;20275;-79
2023/09/16 13:34:03;;;;;;;11.35;9.32;;;;;;;;;;5053714;28;20045;-79
2023/09/16 13:36:49;;;;;;;12.07;10.40;;;;;;;;;;5053611;28;20392;-79
2023/09/16 13:39:45;;;;;;;13.00;10.75;;;;;;;;;;5053296;28;20045;-80
2023/09/16 13:42:31;;;;;;;21.33;14.55;;;;;;;;;;5053162;28;20037;-80
2023/09/16 13:45:17;;;;;;;14.50;10.63;;;;;;;;;;5053648;28;20052;-81
2023/09/16 13:48:21;;;;;;;10.35;8.38;;;;;;;;;;5053773;28;20480;-78
2023/09/16 13:51:07;;;;;;;12.20;9.75;;;;;;;;;;5038629;28;20041;-78
2023/09/16 13:53:52;;;;;;;29.35;15.38;;;;;;;;;;5053621;28;20037;-81
2023/09/16 13:56:38;;;;;;;45.30;20.42;;;;;;;;;;5038464;28;20040;-79
2023/09/16 13:59:23;;;;;;;13.32;9.55;;;;;;;;;;5053270;28;20045;-79
2023/09/16 14:02:14;;;;;;;12.15;8.02;;;;;;;;;;5038964;28;20049;-78
2023/09/16 14:05:00;;;;;;;12.10;8.90;;;;;;;;;;5045626;28;20049;-79
2023/09/16 14:07:45;;;;;;;10.70;8.90;;;;;;;;;;5053759;28;20044;-81
2023/09/16 14:10:32;;;;;;;12.00;9.70;;;;;;;;;;5060677;28;20045;-79
2023/09/16 14:13:17;;;;;;;10.63;8.55;;;;;;;;;;5055944;28;20037;-80
2023/09/16 14:16:02;;;;;;;10.77;8.32;;;;;;;;;;5038527;28;20045;-77
2023/09/16 14:18:48;;;;;;;9.75;8.18;;;;;;;;;;5036254;28;20419;-81
2023/09/16 14:21:33;;;;;;;10.98;8.15;;;;;;;;;;5048524;28;20037;-77
2023/09/16 14:24:21;;;;;;;14.15;8.68;;;;;;;;;;5043984;28;20042;-80
2023/09/16 14:27:05;;;;;;;9.32;8.32;;;;;;;;;;5032425;28;20046;-80
2023/09/16 14:29:51;;;;;;;11.15;8.02;;;;;;;;;;5048201;28;20049;-80
2023/09/16 14:32:37;;;;;;;9.82;8.48;;;;;;;;;;5044187;28;20045;-80
2023/09/16 14:35:22;;;;;;;16.55;9.98;;;;;;;;;;5043198;28;20388;-81
2023/09/16 14:38:08;;;;;;;17.92;10.73;;;;;;;;;;5041379;28;20057;-80
2023/09/16 14:40:53;;;;;;;20.60;11.32;;;;;;;;;;5036903;28;20038;-80
2023/09/16 14:43:39;;;;;;;18.30;10.93;;;;;;;;;;5039620;28;20041;-79
2023/09/16 14:46:24;;;;;;;17.55;11.05;;;;;;;;;;5055374;28;20048;-79
2023/09/16 14:49:10;;;;;;;22.67;10.80;;;;;;;;;;5037068;28;20041;-78
2023/09/16 14:51:56;;;;;;;16.25;10.48;;;;;;;;;;5028751;28;20050;-80
2023/09/16 14:54:41;;;;;;;16.02;9.82;;;;;;;;;;5028561;28;20048;-82
2023/09/16 14:57:27;;;;;;;11.95;9.18;;;;;;;;;;5036945;28;20041;-81
2023/09/16 15:00:13;;;;;;;14.00;11.38;;;;;;;;;;5035262;28;20041;-81
2023/09/16 15:02:58;;;;;;;16.42;12.60;;;;;;;;;;5028011;28;20568;-80
2023/09/16 15:05:43;;;;;;;16.25;14.50;;;;;;;;;;5014405;28;20046;-81
2023/09/16 15:08:28;;;;;;;13.02;10.63;;;;;;;;;;5036480;28;20416;-80
2023/09/16 15:11:14;;;;;;;14.90;10.13;;;;;;;;;;5035753;28;20041;-81
2023/09/16 15:14:00;;;;;;;14.43;11.77;;;;;;;;;;5036748;28;20041;-80
2023/09/16 15:16:45;;;;;;;15.63;13.63;;;;;;;;;;5036192;28;20045;-81
2023/09/16 15:19:31;;;;;;;24.00;13.75;;;;;;;;;;5036546;28;20050;-81
2023/09/16 15:22:16;;;;;;;14.60;11.60;;;;;;;;;;5025431;28;20053;-79
2023/09/16 15:25:02;;;;;;;12.52;11.23;;;;;;;;;;5036287;28;20045;-82
2023/09/16 15:27:47;;;;;;;14.07;11.38;;;;;;;;;;5027824;28;20045;-82
2023/09/16 15:30:32;;;;;;;13.80;12.27;;;;;;;;;;5020630;28;20045;-79
2023/09/16 15:33:18;;;;;;;13.45;11.68;;;;;;;;;;5027801;28;20050;-79
2023/09/16 15:36:03;;;;;;;14.98;11.80;;;;;;;;;;5036494;28;20053;-80
2023/09/16 15:38:50;;;;;;;17.58;13.15;;;;;;;;;;5021667;28;20472;-78
2023/09/16 15:41:36;;;;;;;18.35;12.75;;;;;;;;;;5035811;28;20034;-80
2023/09/16 15:44:22;;;;;;;12.73;11.40;;;;;;;;;;5035724;28;20049;-80
2023/09/16 15:47:09;;;;;;;17.85;12.23;;;;;;;;;;5036165;28;20038;-81
2023/09/16 15:49:54;;;;;;;17.75;12.45;;;;;;;;;;5021304;28;20460;-80
2023/09/16 15:52:41;;;;;;;15.75;12.85;;;;;;;;;;5036066;28;20045;-83
2023/09/16 15:55:26;;;;;;;14.32;12.30;;;;;;;;;;5035831;28;20038;-82
2023/09/16 15:58:13;;;;;;;15.57;13.13;;;;;;;;;;5035871;28;20433;-81
2023/09/16 16:00:59;;;;;;;17.40;13.88;;;;;;;;;;5035681;28;20045;-79
2023/09/16 16:03:45;;;;;;;18.65;13.70;;;;;;;;;;5035917;28;20046;-79
2023/09/16 16:06:30;;;;;;;15.60;13.48;;;;;;;;;;5034812;28;20046;-79
2023/09/16 16:09:16;;;;;;;20.10;14.38;;;;;;;;;;5035218;28;20045;-81
2023/09/16 16:12:03;;;;;;;21.55;13.75;;;;;;;;;;5040703;28;20042;-79
2023/09/16 16:14:48;;;;;;;23.10;14.90;;;;;;;;;;5035304;28;20049;-78
2023/09/16 16:17:34;;;;;;;21.90;16.23;;;;;;;;;;5035331;28;20041;-79